Agia Marina — SX5375 — position and weather

sailwx.info

Track history (hours):
 
Tides and Currents Weather Stations Pressure Air Temp Water Temp Dewpoint Dewpoint Depression Visibility Wind Speed Wind Dir Waves Ship Positions

Agia Marina

Last reported at 2015-May-23 09:31 UTC. Time now 2015-May-23 10:25 UTC.
Position N 37°14' E 026°43'.

Length 59 m; draft 2.5 m.

Type: Cargo ship. MMSI: 237042500.

Date/timePositionNaut miles runAvg speedWind from/ knotsBaromVisibWave heightAir tempDewpointWater temp
2015-May-23 09:31N 37°14' E 026°43'6 6.5
2015-May-23 08:33N 37°09' E 026°46'4 3.7
2015-May-23 07:31N 37°08' E 026°51'0 0.0
2015-May-23 06:34N 37°08' E 026°51'1 0.1
2015-May-23 00:11N 37°07' E 026°50'  
2015-May-20 16:30N 35°34' E 026°50'6 6.7
2015-May-20 15:33N 35°39' E 026°46'9 6.7
2015-May-20 14:15N 35°47' E 026°40'18 6.6
2015-May-20 11:33N 36°02' E 026°30'16 5.2
2015-May-20 08:28N 36°18' E 026°25'6 5.2
2015-May-20 07:22N 36°23' E 026°22'7 0.5
2015-May-19 17:32N 36°30' E 026°22'7 6.7
2015-May-19 16:33N 36°28' E 026°14'7 6.7
2015-May-19 15:33N 36°25' E 026°06'7 6.9
2015-May-19 14:32N 36°23' E 025°58'7 7.0
2015-May-19 13:33N 36°20' E 025°50'3 3.2
2015-May-19 12:32N 36°21' E 025°46'2 2.1
2015-May-19 11:33N 36°21' E 025°44'7 6.7
2015-May-19 10:33N 36°24' E 025°36'7 6.6
2015-May-19 09:33N 36°27' E 025°29'6 6.0
2015-May-19 08:33N 36°29' E 025°22'2 1.7
2015-May-19 07:33N 36°27' E 025°21'5 5.4
2015-May-19 06:33N 36°24' E 025°26'0 0.4
2015-May-19 05:32N 36°23' E 025°26'0 0.0
2015-May-19 04:31N 36°23' E 025°26'0 0.0
2015-May-19 03:33N 36°23' E 025°26'0 0.0
2015-May-19 02:32N 36°23' E 025°26'0 0.0
2015-May-19 01:32N 36°23' E 025°26'0 0.0
2015-May-19 00:32N 36°23' E 025°26'0 0.0
2015-May-18 23:32N 36°23' E 025°26'0 0.0
2015-May-18 22:32N 36°23' E 025°26'0 0.0
2015-May-18 21:33N 36°23' E 025°26'0 0.0
2015-May-18 20:32N 36°23' E 025°26'0 0.0
2015-May-18 19:32N 36°23' E 025°26'0 0.0
2015-May-18 18:30N 36°23' E 025°26'0 0.0
2015-May-18 17:33N 36°23' E 025°26'0 0.0
2015-May-18 16:33N 36°23' E 025°26'0 0.0
2015-May-18 15:32N 36°23' E 025°26'0 0.0
2015-May-18 14:32N 36°23' E 025°26'0 0.0
2015-May-18 13:32N 36°23' E 025°26'1 1.2
2015-May-18 12:33N 36°24' E 025°25'5 5.1
2015-May-18 11:33N 36°28' E 025°21'7 6.6
2015-May-18 10:33N 36°33' E 025°16'7 6.7
2015-May-18 09:33N 36°39' E 025°11'2 2.5
2015-May-18 08:33N 36°40' E 025°09'5 5.2
2015-May-18 07:33N 36°37' E 025°03'5 1.7
2015-May-18 04:33N 36°37' E 024°57'0 0.0
2015-May-18 03:33N 36°37' E 024°57'0 0.0
2015-May-18 02:32N 36°37' E 024°57'0 0.0
2015-May-18 01:32N 36°37' E 024°57'0 0.0
2015-May-18 00:33N 36°37' E 024°57'0 0.0
2015-May-17 23:32N 36°37' E 024°57'0 0.0
2015-May-17 22:32N 36°37' E 024°57'0 0.0
2015-May-17 21:33N 36°37' E 024°57'0 0.0
2015-May-17 20:31N 36°37' E 024°57'0 0.0
2015-May-17 19:32N 36°37' E 024°57'0 0.0
2015-May-17 18:24N 36°37' E 024°57'0 0.0
2015-May-17 17:32N 36°37' E 024°57'24 2.0
2015-May-17 05:12N 36°43' E 024°28'0 0.0
2015-May-17 04:31N 36°43' E 024°28'0 0.0
2015-May-17 03:27N 36°43' E 024°28'33 2.2
2015-May-16 12:33N 37°05' E 024°59'7 6.5
2015-May-16 11:33N 37°05' E 025°07'1 0.9
2015-May-16 10:33N 37°06' E 025°08'0 0.0
2015-May-16 09:33N 37°06' E 025°08'0 0.1
2015-May-16 08:29N 37°06' E 025°09'1 0.1
2015-May-15 20:33N 37°07' E 025°08'6 5.5
2015-May-15 19:33N 37°10' E 025°13'6 5.7
2015-May-15 18:33N 37°08' E 025°20'2 2.4
2015-May-15 17:33N 37°06' E 025°22'0 0.0
2015-May-15 16:33N 37°06' E 025°22'1 0.6
2015-May-15 15:33N 37°06' E 025°22'0 0.0
2015-May-15 14:33N 37°06' E 025°22'0 0.0
2015-May-15 13:33N 37°06' E 025°22'0 0.0
2015-May-15 12:33N 37°06' E 025°22'2 1.8
2015-May-15 11:33N 37°08' E 025°21'6 6.5
2015-May-15 10:33N 37°12' E 025°15'7 6.6
2015-May-15 09:33N 37°17' E 025°09'7 6.6
2015-May-15 08:33N 37°21' E 025°03'7 6.6
2015-May-15 07:33N 37°26' E 024°57'1 0.9
2015-May-15 06:33N 37°26' E 024°56'0 0.0
2015-May-15 05:33N 37°26' E 024°56'0 0.0
2015-May-15 04:33N 37°26' E 024°56'0 0.0
2015-May-15 03:33N 37°26' E 024°56'0 0.0
2015-May-15 02:33N 37°26' E 024°56'0 0.0
2015-May-15 01:33N 37°26' E 024°56'0 0.0
2015-May-15 00:30N 37°26' E 024°56'0 0.0
2015-May-14 23:33N 37°26' E 024°56'0 0.0
2015-May-14 22:27N 37°26' E 024°56'0 0.0
2015-May-14 21:33N 37°26' E 024°56'1 1.0
2015-May-14 20:33N 37°26' E 024°57'7 6.6
2015-May-14 19:33N 37°30' E 025°04'5 4.6
2015-May-14 18:33N 37°32' E 025°09'0 0.0
2015-May-14 17:33N 37°32' E 025°09'0 0.0
2015-May-14 16:33N 37°32' E 025°09'3 3.5
2015-May-14 15:33N 37°33' E 025°05'7 6.9
2015-May-14 14:33N 37°38' E 024°59'7 6.5
2015-May-14 13:31N 37°43' E 024°53'  
Track history (hours):
 
Tides and Currents Weather Stations Pressure Air Temp Water Temp Dewpoint Dewpoint Depression Visibility Wind Speed Wind Dir Waves Ship Positions

Agia Marina

Last reported at 2015-May-23 09:31 UTC. Time now 2015-May-23 10:25 UTC.
Position N 37°14' E 026°43'.

Length 59 m; draft 2.5 m.

Type: Cargo ship. MMSI: 237042500.

Date/timePositionNaut miles runAvg speedWind from/ knotsBaromVisibWave heightAir tempDewpointWater temp
2015-May-23 09:31N 37°14' E 026°43'6 6.5
2015-May-23 08:33N 37°09' E 026°46'4 3.7
2015-May-23 07:31N 37°08' E 026°51'0 0.0
2015-May-23 06:34N 37°08' E 026°51'1 0.1
2015-May-23 00:11N 37°07' E 026°50'  
2015-May-20 16:30N 35°34' E 026°50'6 6.7
2015-May-20 15:33N 35°39' E 026°46'9 6.7
2015-May-20 14:15N 35°47' E 026°40'18 6.6
2015-May-20 11:33N 36°02' E 026°30'16 5.2
2015-May-20 08:28N 36°18' E 026°25'6 5.2
2015-May-20 07:22N 36°23' E 026°22'7 0.5
2015-May-19 17:32N 36°30' E 026°22'7 6.7
2015-May-19 16:33N 36°28' E 026°14'7 6.7
2015-May-19 15:33N 36°25' E 026°06'7 6.9
2015-May-19 14:32N 36°23' E 025°58'7 7.0
2015-May-19 13:33N 36°20' E 025°50'3 3.2
2015-May-19 12:32N 36°21' E 025°46'2 2.1
2015-May-19 11:33N 36°21' E 025°44'7 6.7
2015-May-19 10:33N 36°24' E 025°36'7 6.6
2015-May-19 09:33N 36°27' E 025°29'6 6.0
2015-May-19 08:33N 36°29' E 025°22'2 1.7
2015-May-19 07:33N 36°27' E 025°21'5 5.4
2015-May-19 06:33N 36°24' E 025°26'0 0.4
2015-May-19 05:32N 36°23' E 025°26'0 0.0
2015-May-19 04:31N 36°23' E 025°26'0 0.0
2015-May-19 03:33N 36°23' E 025°26'0 0.0
2015-May-19 02:32N 36°23' E 025°26'0 0.0
2015-May-19 01:32N 36°23' E 025°26'0 0.0
2015-May-19 00:32N 36°23' E 025°26'0 0.0
2015-May-18 23:32N 36°23' E 025°26'0 0.0
2015-May-18 22:32N 36°23' E 025°26'0 0.0
2015-May-18 21:33N 36°23' E 025°26'0 0.0
2015-May-18 20:32N 36°23' E 025°26'0 0.0
2015-May-18 19:32N 36°23' E 025°26'0 0.0
2015-May-18 18:30N 36°23' E 025°26'0 0.0
2015-May-18 17:33N 36°23' E 025°26'0 0.0
2015-May-18 16:33N 36°23' E 025°26'0 0.0
2015-May-18 15:32N 36°23' E 025°26'0 0.0
2015-May-18 14:32N 36°23' E 025°26'0 0.0
2015-May-18 13:32N 36°23' E 025°26'1 1.2
2015-May-18 12:33N 36°24' E 025°25'5 5.1
2015-May-18 11:33N 36°28' E 025°21'7 6.6
2015-May-18 10:33N 36°33' E 025°16'7 6.7
2015-May-18 09:33N 36°39' E 025°11'2 2.5
2015-May-18 08:33N 36°40' E 025°09'5 5.2
2015-May-18 07:33N 36°37' E 025°03'5 1.7
2015-May-18 04:33N 36°37' E 024°57'0 0.0
2015-May-18 03:33N 36°37' E 024°57'0 0.0
2015-May-18 02:32N 36°37' E 024°57'0 0.0
2015-May-18 01:32N 36°37' E 024°57'0 0.0
2015-May-18 00:33N 36°37' E 024°57'0 0.0
2015-May-17 23:32N 36°37' E 024°57'0 0.0
2015-May-17 22:32N 36°37' E 024°57'0 0.0
2015-May-17 21:33N 36°37' E 024°57'0 0.0
2015-May-17 20:31N 36°37' E 024°57'0 0.0
2015-May-17 19:32N 36°37' E 024°57'0 0.0
2015-May-17 18:24N 36°37' E 024°57'0 0.0
2015-May-17 17:32N 36°37' E 024°57'24 2.0
2015-May-17 05:12N 36°43' E 024°28'0 0.0
2015-May-17 04:31N 36°43' E 024°28'0 0.0
2015-May-17 03:27N 36°43' E 024°28'33 2.2
2015-May-16 12:33N 37°05' E 024°59'7 6.5
2015-May-16 11:33N 37°05' E 025°07'1 0.9
2015-May-16 10:33N 37°06' E 025°08'0 0.0
2015-May-16 09:33N 37°06' E 025°08'0 0.1
2015-May-16 08:29N 37°06' E 025°09'1 0.1
2015-May-15 20:33N 37°07' E 025°08'6 5.5
2015-May-15 19:33N 37°10' E 025°13'6 5.7
2015-May-15 18:33N 37°08' E 025°20'2 2.4
2015-May-15 17:33N 37°06' E 025°22'0 0.0
2015-May-15 16:33N 37°06' E 025°22'1 0.6
2015-May-15 15:33N 37°06' E 025°22'0 0.0
2015-May-15 14:33N 37°06' E 025°22'0 0.0
2015-May-15 13:33N 37°06' E 025°22'0 0.0
2015-May-15 12:33N 37°06' E 025°22'2 1.8
2015-May-15 11:33N 37°08' E 025°21'6 6.5
2015-May-15 10:33N 37°12' E 025°15'7 6.6
2015-May-15 09:33N 37°17' E 025°09'7 6.6
2015-May-15 08:33N 37°21' E 025°03'7 6.6
2015-May-15 07:33N 37°26' E 024°57'1 0.9
2015-May-15 06:33N 37°26' E 024°56'0 0.0
2015-May-15 05:33N 37°26' E 024°56'0 0.0
2015-May-15 04:33N 37°26' E 024°56'0 0.0
2015-May-15 03:33N 37°26' E 024°56'0 0.0
2015-May-15 02:33N 37°26' E 024°56'0 0.0
2015-May-15 01:33N 37°26' E 024°56'0 0.0
2015-May-15 00:30N 37°26' E 024°56'0 0.0
2015-May-14 23:33N 37°26' E 024°56'0 0.0
2015-May-14 22:27N 37°26' E 024°56'0 0.0
2015-May-14 21:33N 37°26' E 024°56'1 1.0
2015-May-14 20:33N 37°26' E 024°57'7 6.6
2015-May-14 19:33N 37°30' E 025°04'5 4.6
2015-May-14 18:33N 37°32' E 025°09'0 0.0
2015-May-14 17:33N 37°32' E 025°09'0 0.0
2015-May-14 16:33N 37°32' E 025°09'3 3.5
2015-May-14 15:33N 37°33' E 025°05'7 6.9
2015-May-14 14:33N 37°38' E 024°59'7 6.5
2015-May-14 13:31N 37°43' E 024°53'  

Dump ship's entire track history